createdAt,value
2023-01-20T00:01:05.548Z,6.1
2023-01-20T00:07:25.481Z,6.1
2023-01-20T00:13:48.734Z,5.5
2023-01-20T00:20:08.586Z,5.5
2023-01-20T00:26:31.516Z,7.2
2023-01-20T00:32:51.505Z,7.2
2023-01-20T00:39:14.678Z,4.1
2023-01-20T00:45:34.494Z,4.1
2023-01-20T00:51:57.683Z,5
2023-01-20T00:58:17.711Z,5
2023-01-20T01:04:40.541Z,3.7
2023-01-20T01:11:00.615Z,3.7
2023-01-20T01:17:23.595Z,5.9
2023-01-20T01:23:43.504Z,5.9
2023-01-20T01:30:06.553Z,2.3
2023-01-20T01:36:26.603Z,2.3
2023-01-20T01:42:49.610Z,3
2023-01-20T01:49:09.696Z,3
2023-01-20T01:55:32.696Z,4
2023-01-20T02:01:52.709Z,4
2023-01-20T02:08:15.567Z,2.4
2023-01-20T02:14:35.535Z,2.4
2023-01-20T02:20:58.551Z,3.6
2023-01-20T02:27:18.632Z,3.6
2023-01-20T02:33:41.624Z,4.4
2023-01-20T02:40:01.492Z,4.4
2023-01-20T02:46:24.661Z,4.2
2023-01-20T02:52:44.680Z,4.2
2023-01-20T02:59:07.727Z,6.2
2023-01-20T03:05:27.775Z,6.2
2023-01-20T03:11:50.692Z,4.1
2023-01-20T03:18:10.602Z,4.1
2023-01-20T03:24:33.566Z,5.6
2023-01-20T03:30:53.739Z,5.6
2023-01-20T03:37:16.534Z,3.9
2023-01-20T03:43:36.474Z,3.9
2023-01-20T03:49:59.798Z,3
2023-01-20T03:56:19.651Z,3
2023-01-20T04:02:42.632Z,3
2023-01-20T04:26:24.524Z,3.5
2023-01-20T04:32:44.539Z,3.5
2023-01-20T04:39:07.640Z,1.5
2023-01-20T04:45:27.677Z,1.5
2023-01-20T04:51:50.640Z,3.1
2023-01-20T04:58:10.536Z,3.1
2023-01-20T05:04:33.554Z,3.4
2023-01-20T05:10:53.489Z,3.4
2023-01-20T05:17:16.507Z,5.7
2023-01-20T05:23:36.588Z,5.7
2023-01-20T05:29:59.481Z,7.2
2023-01-20T05:36:19.556Z,7.2
2023-01-20T05:42:42.498Z,6.1
2023-01-20T05:49:02.483Z,6.1
2023-01-20T05:55:25.492Z,3.4
2023-01-20T06:01:45.619Z,3.4
2023-01-20T06:08:08.788Z,3.9
2023-01-20T06:14:28.510Z,3.9
2023-01-20T06:20:51.593Z,4.3
2023-01-20T06:27:13.571Z,4.3
2023-01-20T06:33:34.688Z,4.4
2023-01-20T06:39:54.643Z,4.4
2023-01-20T06:46:17.600Z,4.2
2023-01-20T06:52:37.536Z,4.2
2023-01-20T06:59:00.576Z,2.3
2023-01-20T07:05:20.495Z,2.3
2023-01-20T07:11:43.685Z,2.1
2023-01-20T07:18:03.576Z,2.1
2023-01-20T07:24:26.508Z,3.5
2023-01-20T07:30:46.737Z,3.5
2023-01-20T07:37:09.632Z,5.7
2023-01-20T07:43:29.677Z,5.7
2023-01-20T07:49:52.601Z,3.5
2023-01-20T07:56:12.728Z,3.5
2023-01-20T08:02:35.622Z,3.6
2023-01-20T08:08:57.785Z,3.6
2023-01-20T08:15:18.788Z,3.3
2023-01-20T08:21:38.627Z,3.3
2023-01-20T08:28:01.682Z,5
2023-01-20T08:34:21.759Z,5
2023-01-20T08:40:44.593Z,4.8
2023-01-20T08:47:04.636Z,4.8
2023-01-20T08:53:27.695Z,3.4
2023-01-20T08:59:47.633Z,3.4
2023-01-20T09:06:10.679Z,3.9
2023-01-20T09:22:53.190Z,3.5
2023-01-20T09:29:16.037Z,7.5
2023-01-20T09:35:35.539Z,7.5
2023-01-20T09:41:58.712Z,7.5
2023-01-20T09:48:18.500Z,7.5
2023-01-20T09:54:41.716Z,6.2
2023-01-20T10:01:01.670Z,6.2
2023-01-20T10:07:24.711Z,3.9
2023-01-20T10:13:44.635Z,3.9
2023-01-20T10:20:07.524Z,3.4
2023-01-20T10:26:27.659Z,3.4
2023-01-20T10:32:50.540Z,2.3
2023-01-20T10:39:10.693Z,2.3
2023-01-20T10:45:33.629Z,3.9
2023-01-20T10:51:53.566Z,3.9
2023-01-20T10:58:16.564Z,2.4
2023-01-20T11:04:36.608Z,2.4
2023-01-20T11:10:59.581Z,2.5
2023-01-20T11:17:19.669Z,2.5
2023-01-20T11:23:42.527Z,4.3
2023-01-20T11:30:02.586Z,4.3
2023-01-20T11:36:25.997Z,3.9
2023-01-20T11:42:46.004Z,3.9
2023-01-20T11:49:08.898Z,1.9
2023-01-20T11:55:28.523Z,1.9
2023-01-20T12:01:51.721Z,4.4
2023-01-20T12:08:11.552Z,4.4
2023-01-20T12:14:34.567Z,4.3
2023-01-20T12:20:55.776Z,4.3
2023-01-20T12:27:17.604Z,6.3
2023-01-20T12:33:37.782Z,6.3
2023-01-20T12:40:00.629Z,5.5
2023-01-20T12:46:20.659Z,5.5
2023-01-20T12:52:43.753Z,7.2
2023-01-20T12:59:03.911Z,7.2
2023-01-20T13:05:26.979Z,6.7
2023-01-20T13:11:46.631Z,6.7
2023-01-20T13:18:09.561Z,6.7
2023-01-20T13:24:29.503Z,6.7
2023-01-20T13:30:52.646Z,5.4
2023-01-20T13:37:12.645Z,5.4
2023-01-20T13:43:35.528Z,4.5
2023-01-20T13:49:55.669Z,4.5
2023-01-20T13:56:18.535Z,4.6
2023-01-20T14:02:38.962Z,4.6
2023-01-20T14:09:01.645Z,6.4
2023-01-20T14:32:43.597Z,5.6
2023-01-20T14:39:04.089Z,5.6
2023-01-20T14:45:26.525Z,5.3
2023-01-20T14:51:46.518Z,5.3
2023-01-20T14:58:09.527Z,6.1
2023-01-20T15:04:29.511Z,6.1
2023-01-20T15:10:52.974Z,8.5
2023-01-20T15:17:12.676Z,8.5
2023-01-20T15:23:35.572Z,7.4
2023-01-20T15:29:55.615Z,7.4
2023-01-20T15:36:19.853Z,9.4
2023-01-20T15:42:39.515Z,9.4
2023-01-20T15:49:02.817Z,8.1
2023-01-20T15:55:22.615Z,8.1
2023-01-20T16:01:45.569Z,9.5
2023-01-20T16:08:05.546Z,9.5
2023-01-20T16:14:28.582Z,9.5
2023-01-20T16:20:48.546Z,9.5
2023-01-20T16:27:12.394Z,6.6
2023-01-20T16:33:31.780Z,6.6
2023-01-20T16:39:54.705Z,7.1
2023-01-20T16:46:14.649Z,7.1
2023-01-20T16:52:37.551Z,7.8
2023-01-20T16:58:57.691Z,7.8
2023-01-20T17:05:20.675Z,5.7
2023-01-20T17:11:40.525Z,5.7
2023-01-20T17:18:03.761Z,4.7
2023-01-20T17:24:23.983Z,4.7
2023-01-20T17:30:46.725Z,4.7
2023-01-20T17:37:06.706Z,4.7
2023-01-20T17:43:29.534Z,5.3
2023-01-20T17:49:49.695Z,5.3
2023-01-20T17:56:13.535Z,4.8
2023-01-20T18:02:32.919Z,4.8
2023-01-20T18:08:55.545Z,5.8
2023-01-20T18:15:15.836Z,5.8
2023-01-20T18:21:38.683Z,5.2
2023-01-20T18:27:58.483Z,5.2
2023-01-20T18:34:21.607Z,5.1
2023-01-20T18:40:41.656Z,5.1
2023-01-20T18:47:04.595Z,5.3
2023-01-20T18:53:24.800Z,5.3
2023-01-20T18:59:47.702Z,5.6
2023-01-20T19:06:07.655Z,5.6
2023-01-20T19:22:18.582Z,13.6
2023-01-20T19:28:38.556Z,13.6
2023-01-20T19:35:01.570Z,13.6
2023-01-20T19:41:21.553Z,13.6
2023-01-20T19:47:44.526Z,7.9
2023-01-20T19:54:04.860Z,7.9
2023-01-20T20:00:27.588Z,8.2
2023-01-20T20:06:48.757Z,8.2
2023-01-20T20:13:10.704Z,9
2023-01-20T20:19:30.654Z,9
2023-01-20T20:25:53.514Z,11.5
2023-01-20T20:32:13.648Z,11.5
2023-01-20T20:38:36.616Z,9.2
2023-01-20T20:44:56.524Z,9.2
2023-01-20T20:51:19.626Z,11.2
2023-01-20T20:57:39.629Z,11.2
2023-01-20T21:04:02.717Z,9.6
2023-01-20T21:10:22.616Z,9.6
2023-01-20T21:16:45.665Z,5.8
2023-01-20T21:23:05.628Z,5.8
2023-01-20T21:29:28.657Z,8.4
2023-01-20T21:35:48.700Z,8.4
2023-01-20T21:42:11.509Z,10.5
2023-01-20T21:48:31.507Z,10.5
2023-01-20T21:54:54.976Z,8.9
2023-01-20T22:01:14.569Z,8.9
2023-01-20T22:07:37.644Z,11.4
2023-01-20T22:13:57.543Z,11.4
2023-01-20T22:20:20.655Z,7.5
2023-01-20T22:26:40.585Z,7.5
2023-01-20T22:33:03.580Z,9.7
2023-01-20T22:39:23.541Z,9.7
2023-01-20T22:45:48.237Z,6.9
2023-01-20T22:52:06.525Z,6.9
2023-01-20T22:58:29.555Z,9.2
2023-01-20T23:22:44.508Z,18.6
2023-01-20T23:29:04.519Z,18.6
2023-01-20T23:35:27.611Z,18.6
2023-01-20T23:41:47.564Z,18.6
2023-01-20T23:48:10.622Z,5.8
2023-01-20T23:54:30.529Z,5.8
